地図

経路データ

SID SEASON NUMBER BASIN SUBBASIN NAME ISO_TIME NATURE LAT LON WMO_WIND WMO_PRES WMO_AGENCY TRACK_TYPE DIST2LAND LANDFALL IFLAG USA_AGENCY USA_ATCF_ID USA_LAT USA_LON USA_RECORD USA_STATUS USA_WIND USA_PRES USA_SSHS USA_R34_NE USA_R34_SE USA_R34_SW USA_R34_NW USA_R50_NE USA_R50_SE USA_R50_SW USA_R50_NW USA_R64_NE USA_R64_SE USA_R64_SW USA_R64_NW USA_POCI USA_ROCI USA_RMW USA_EYE TOKYO_LAT TOKYO_LON TOKYO_GRADE TOKYO_WIND TOKYO_PRES TOKYO_R50_DIR TOKYO_R50_LONG TOKYO_R50_SHORT TOKYO_R30_DIR TOKYO_R30_LONG TOKYO_R30_SHORT TOKYO_LAND CMA_LAT CMA_LON CMA_CAT CMA_WIND CMA_PRES HKO_LAT HKO_LON HKO_CAT HKO_WIND HKO_PRES NEWDELHI_LAT NEWDELHI_LON NEWDELHI_GRADE NEWDELHI_WIND NEWDELHI_PRES NEWDELHI_CI NEWDELHI_DP NEWDELHI_POCI REUNION_LAT REUNION_LON REUNION_TYPE REUNION_WIND REUNION_PRES REUNION_TNUM REUNION_CI REUNION_RMW REUNION_R34_NE REUNION_R34_SE REUNION_R34_SW REUNION_R34_NW REUNION_R50_NE REUNION_R50_SE REUNION_R50_SW REUNION_R50_NW REUNION_R64_NE REUNION_R64_SE REUNION_R64_SW REUNION_R64_NW BOM_LAT BOM_LON BOM_TYPE BOM_WIND BOM_PRES BOM_TNUM BOM_CI BOM_RMW BOM_R34_NE BOM_R34_SE BOM_R34_SW BOM_R34_NW BOM_R50_NE BOM_R50_SE BOM_R50_SW BOM_R50_NW BOM_R64_NE BOM_R64_SE BOM_R64_SW BOM_R64_NW BOM_ROCI BOM_POCI BOM_EYE BOM_POS_METHOD BOM_PRES_METHOD NADI_LAT NADI_LON NADI_CAT NADI_WIND NADI_PRES WELLINGTON_LAT WELLINGTON_LON WELLINGTON_WIND WELLINGTON_PRES DS824_LAT DS824_LON DS824_STAGE DS824_WIND DS824_PRES TD9636_LAT TD9636_LON TD9636_STAGE TD9636_WIND TD9636_PRES TD9635_LAT TD9635_LON TD9635_WIND TD9635_PRES TD9635_ROCI NEUMANN_LAT NEUMANN_LON NEUMANN_CLASS NEUMANN_WIND NEUMANN_PRES MLC_LAT MLC_LON MLC_CLASS MLC_WIND MLC_PRES USA_GUST BOM_GUST BOM_GUST_PER REUNION_GUST REUNION_GUST_PER USA_SEAHGT USA_SEARAD_NE USA_SEARAD_SE USA_SEARAD_SW USA_SEARAD_NW STORM_SPEED STORM_DIR
1908245N23136 1908 35 WP MM NOT_NAMED 1908-08-31 16:00:00 NR 22.6000 135.800 main 1065 1046 __________O___ -1 22.6000 135.800 7 7 288
1908245N23136 1908 35 WP MM NOT_NAMED 1908-08-31 18:00:00 NR 22.6752 135.559 main 1046 1018 __________P___ -1 22.6752 135.559 7 7 289
1908245N23136 1908 35 WP MM NOT_NAMED 1908-08-31 21:00:00 NR 22.7907 135.201 main 1018 991 __________P___ -1 22.7907 135.201 7 7 290
1908245N23136 1908 35 WP MM NOT_NAMED 1908-09-01 00:00:00 NR 22.9141 134.850 main 991 958 __________P___ -1 22.9141 134.850 7 7 292
1908245N23136 1908 35 WP MM NOT_NAMED 1908-09-01 03:00:00 NR 23.0507 134.510 main 958 954 __________P___ -1 23.0507 134.510 7 7 294
1908245N23136 1908 35 WP MM NOT_NAMED 1908-09-01 04:00:00 NR 23.1000 134.400 main 954 937 __________O___ -1 23.1000 134.400 7 7 297
1908245N23136 1908 35 WP MM NOT_NAMED 1908-09-01 06:00:00 NR 23.2050 134.186 main 937 905 __________P___ -1 23.2050 134.186 7 7 300
1908245N23136 1908 35 WP MM NOT_NAMED 1908-09-01 09:00:00 NR 23.3754 133.877 main 905 874 __________P___ -1 23.3754 133.877 7 7 302
1908245N23136 1908 35 WP MM NOT_NAMED 1908-09-01 12:00:00 NR 23.5555 133.581 main 874 854 __________P___ -1 23.5555 133.581 7 6 304
1908245N23136 1908 35 WP MM NOT_NAMED 1908-09-01 15:00:00 NR 23.7391 133.294 main 854 840 __________P___ -1 23.7391 133.294 7 6 305
1908245N23136 1908 35 WP MM NOT_NAMED 1908-09-01 16:00:00 NR 23.8000 133.200 main 840 824 __________O___ -1 23.8000 133.200 7 6 301
1908245N23136 1908 35 WP MM NOT_NAMED 1908-09-01 18:00:00 NR 23.9009 132.998 main 824 795 __________P___ -1 23.9009 132.998 7 6 299
1908245N23136 1908 35 WP MM NOT_NAMED 1908-09-01 21:00:00 NR 24.0520 132.700 main 795 777 __________P___ -1 24.0520 132.700 7 6 301
1908245N23136 1908 35 WP MM NOT_NAMED 1908-09-02 00:00:00 NR 24.2193 132.421 main 777 751 __________P___ -1 24.2193 132.421 7 6 308
1908245N23136 1908 35 WP MM NOT_NAMED 1908-09-02 03:00:00 NR 24.4216 132.174 main 751 738 __________P___ -1 24.4216 132.174 7 6 314
1908245N23136 1908 35 WP MM NOT_NAMED 1908-09-02 04:00:00 NR 24.5000 132.100 main 738 713 __________O___ -1 24.5000 132.100 7 7 321
1908245N23136 1908 35 WP MM NOT_NAMED 1908-09-02 06:00:00 NR 24.6744 131.948 main 713 678 __________P___ -1 24.6744 131.948 7 7 326
1908245N23136 1908 35 WP MM NOT_NAMED 1908-09-02 09:00:00 NR 24.9739 131.751 main 678 642 __________P___ -1 24.9739 131.751 7 7 334
1908245N23136 1908 35 WP MM NOT_NAMED 1908-09-02 12:00:00 NR 25.3102 131.602 main 642 596 __________P___ -1 25.3102 131.602 7 7 343
1908245N23136 1908 35 WP MM NOT_NAMED 1908-09-02 15:00:00 NR 25.6742 131.514 main 596 585 __________P___ -1 25.6742 131.514 7 8 350
1908245N23136 1908 35 WP MM NOT_NAMED 1908-09-02 16:00:00 NR 25.8000 131.500 main 585 552 __________O___ -1 25.8000 131.500 2 8 0
1908245N23136 1908 35 WP MM NOT_NAMED 1908-09-02 18:00:00 NR 26.0565 131.497 main 552 508 __________P___ -1 26.0565 131.497 2 8 3
1908245N23136 1908 35 WP MM NOT_NAMED 1908-09-02 21:00:00 NR 26.4514 131.544 main 508 465 __________P___ -1 26.4514 131.544 2 8 9
1908245N23136 1908 35 WP MM NOT_NAMED 1908-09-03 00:00:00 NR 26.8550 131.637 main 465 426 __________P___ -1 26.8550 131.637 2 8 13
1908245N23136 1908 35 WP MM NOT_NAMED 1908-09-03 03:00:00 NR 27.2634 131.757 main 426 415 __________P___ -1 27.2634 131.757 2 8 15
1908245N23136 1908 35 WP MM NOT_NAMED 1908-09-03 04:00:00 NR 27.4000 131.800 main 415 __________O___ -1 27.4000 131.800 2 9 17

デジタル台風データ・検索

IBTrACS Databaseについて

本データベースは、米国NOAAが公開する1842年以降の世界の熱帯低気圧のベストトラックデータアーカイブInternational Best Track Archive for Climate Stewardship (IBTrACS)を、ウェブで閲覧しやすい形式に変換したものです。

最終更新日:2021-10-27